Time;durP1;ratioP1;P1;durP2;ratioP2;P2;SDS_P1;SDS_P2;PMS_P1;PMS_P2;Temp;Humidity;BMP_temperature;BMP_pressure;BME280_temperature;BME280_humidity;BME280_pressure;Samples;Min_cycle;Max_cycle;Signal;HPM_P1;HPM_P2
2022/08/15 00:01:30;;;;;;;13.98;11.90;;;21.50;99.90;;;;;;4990393;28;20062;-88
2022/08/15 00:03:58;;;;;;;13.10;10.13;;;21.40;99.90;;;;;;4988173;28;20085;-87
2022/08/15 00:06:28;;;;;;;13.30;11.45;;;21.50;99.90;;;;;;4972771;28;20299;-88
2022/08/15 00:09:00;;;;;;;13.85;11.23;;;21.30;99.90;;;;;;4986001;28;20042;-89
2022/08/15 00:11:34;;;;;;;14.00;11.75;;;21.60;99.90;;;;;;4989786;28;20082;-87
2022/08/15 00:14:22;;;;;;;14.48;11.38;;;21.60;99.90;;;;;;4988340;28;20193;-87
2022/08/15 00:16:48;;;;;;;13.93;11.32;;;21.50;99.90;;;;;;4987679;28;20499;-88
2022/08/15 00:19:29;;;;;;;11.85;10.52;;;21.50;99.90;;;;;;4988056;28;20117;-89
2022/08/15 00:22:04;;;;;;;12.95;11.02;;;21.50;99.90;;;;;;4987307;28;20532;-88
2022/08/15 00:24:34;;;;;;;14.27;11.55;;;21.60;99.90;;;;;;4987636;28;20042;-87
2022/08/15 00:27:03;;;;;;;12.57;11.13;;;21.50;99.90;;;;;;4974856;28;20047;-88
2022/08/15 00:29:33;;;;;;;12.20;10.90;;;21.40;99.90;;;;;;4989719;28;20293;-88
2022/08/15 00:32:00;;;;;;;13.73;10.77;;;21.40;99.90;;;;;;4985913;28;20046;-87
2022/08/15 00:34:26;;;;;;;12.77;11.18;;;21.40;99.90;;;;;;4988511;28;20392;-88
2022/08/15 00:36:52;;;;;;;12.38;10.80;;;21.40;99.90;;;;;;4969139;28;20403;-86
2022/08/15 00:39:21;;;;;;;12.98;11.32;;;21.40;99.90;;;;;;4988705;28;20046;-87
2022/08/15 00:41:49;;;;;;;13.65;12.00;;;21.50;99.90;;;;;;4987630;28;20050;-86
2022/08/15 00:44:24;;;;;;;13.85;11.80;;;21.50;99.90;;;;;;4967800;28;20516;-87
2022/08/15 00:46:57;;;;;;;14.13;12.63;;;21.50;99.90;;;;;;4973715;28;20087;-88
2022/08/15 00:49:38;;;;;;;14.15;11.93;;;21.50;99.90;;;;;;4988741;28;20042;-88
2022/08/15 00:52:19;;;;;;;13.85;12.02;;;21.50;99.90;;;;;;4985344;28;20332;-88
2022/08/15 00:54:51;;;;;;;13.85;12.40;;;21.50;99.90;;;;;;4986386;28;20042;-88
2022/08/15 00:57:19;;;;;;;13.60;12.15;;;21.40;99.90;;;;;;4987055;28;20054;-88
2022/08/15 00:59:51;;;;;;;14.35;12.75;;;21.40;99.90;;;;;;4986345;28;20054;-88
2022/08/15 01:02:57;;;;;;;13.27;11.73;;;21.40;99.90;;;;;;4987313;28;20133;-88
2022/08/15 01:05:23;;;;;;;12.85;11.45;;;21.40;99.90;;;;;;4987872;28;20415;-88
2022/08/15 01:07:48;;;;;;;13.35;11.27;;;21.40;99.90;;;;;;4969449;28;20053;-88
2022/08/15 01:10:20;;;;;;;14.57;11.55;;;21.40;99.90;;;;;;4988693;28;20046;-88
2022/08/15 01:12:46;;;;;;;14.80;11.88;;;21.40;99.90;;;;;;4991430;28;20043;-89
2022/08/15 01:15:15;;;;;;;13.27;11.85;;;21.50;99.90;;;;;;4991446;28;20381;-88
2022/08/15 01:17:42;;;;;;;14.40;11.73;;;21.50;99.90;;;;;;4991866;28;20054;-86
2022/08/15 01:20:16;;;;;;;12.35;11.10;;;21.50;99.90;;;;;;4991670;28;20042;-87
2022/08/15 01:23:09;;;;;;;13.20;11.68;;;21.50;99.90;;;;;;4990122;28;20044;-88
2022/08/15 01:25:52;;;;;;;13.25;11.15;;;21.60;99.90;;;;;;4989586;28;20050;-89
2022/08/15 01:28:21;;;;;;;13.95;12.18;;;21.60;99.90;;;;;;4982173;28;20050;-88
2022/08/15 01:30:58;;;;;;;13.75;11.95;;;21.50;99.90;;;;;;4974975;28;20058;-89
2022/08/15 01:33:28;;;;;;;14.48;11.75;;;21.60;99.90;;;;;;4990261;28;20073;-88
2022/08/15 01:35:55;;;;;;;13.68;11.82;;;21.60;99.90;;;;;;4989210;28;20347;-88
2022/08/15 01:38:29;;;;;;;13.35;11.90;;;21.60;99.90;;;;;;4974680;28;20081;-86
2022/08/15 01:41:15;;;;;;;13.80;11.65;;;21.60;99.90;;;;;;4994627;28;20054;-86
2022/08/15 01:43:49;;;;;;;12.80;11.32;;;21.60;99.90;;;;;;4991114;28;20057;-88
2022/08/15 01:46:15;;;;;;;13.50;11.13;;;21.60;99.90;;;;;;4989783;28;20046;-87
2022/08/15 01:48:51;;;;;;;12.00;10.70;;;21.60;99.90;;;;;;4990775;28;20038;-86
2022/08/15 01:51:17;;;;;;;12.32;11.00;;;21.60;99.90;;;;;;4980465;28;20098;-85
2022/08/15 01:53:50;;;;;;;11.05;9.77;;;21.70;99.90;;;;;;4987060;28;20134;-87
2022/08/15 01:56:45;;;;;;;13.05;11.00;;;21.70;99.90;;;;;;4990974;28;20050;-88
2022/08/15 01:59:18;;;;;;;12.35;11.00;;;21.70;99.90;;;;;;4972664;28;20243;-86
2022/08/15 02:01:57;;;;;;;11.88;10.00;;;21.60;99.90;;;;;;4991144;28;20419;-88
2022/08/15 02:04:28;;;;;;;12.13;10.85;;;21.70;99.90;;;;;;4990248;28;20046;-87
2022/08/15 02:06:59;;;;;;;12.23;10.77;;;21.70;99.90;;;;;;4989683;28;20144;-89
2022/08/15 02:09:26;;;;;;;13.35;10.63;;;21.70;99.90;;;;;;4974163;28;20129;-88
2022/08/15 02:11:53;;;;;;;11.90;9.95;;;21.70;99.90;;;;;;4973413;28;20057;-87
2022/08/15 02:14:21;;;;;;;11.52;10.00;;;21.70;99.90;;;;;;4982894;28;20480;-87
2022/08/15 02:16:48;;;;;;;11.93;10.02;;;21.80;99.90;;;;;;4984532;28;20051;-88
2022/08/15 02:19:15;;;;;;;11.93;10.25;;;21.70;99.90;;;;;;4985930;28;20050;-88
2022/08/15 02:21:44;;;;;;;14.18;11.18;;;21.60;99.90;;;;;;4974008;28;20391;-87
2022/08/15 02:24:18;;;;;;;11.88;10.45;;;21.60;99.90;;;;;;4990171;28;20097;-87
2022/08/15 02:26:44;;;;;;;12.75;10.48;;;21.60;99.90;;;;;;4987903;28;20057;-88
2022/08/15 02:29:11;;;;;;;11.82;10.63;;;21.60;99.90;;;;;;4989457;28;20038;-86
2022/08/15 02:31:37;;;;;;;11.32;10.00;;;21.60;99.90;;;;;;4973499;28;20125;-86
2022/08/15 02:34:06;;;;;;;12.73;10.32;;;21.50;99.90;;;;;;4987684;28;20077;-86
2022/08/15 02:36:35;;;;;;;13.23;10.35;;;21.50;99.90;;;;;;4987938;28;20088;-86
2022/08/15 02:39:03;;;;;;;13.20;10.40;;;21.50;99.90;;;;;;4989584;28;20046;-85
2022/08/15 02:41:35;;;;;;;11.90;10.35;;;21.50;99.90;;;;;;4973827;28;20186;-86
2022/08/15 02:44:02;;;;;;;13.18;10.52;;;21.40;99.90;;;;;;4978824;28;20453;-86
2022/08/15 02:46:30;;;;;;;12.18;10.88;;;21.40;99.90;;;;;;4990601;28;20050;-86
2022/08/15 02:48:58;;;;;;;14.02;10.88;;;21.40;99.90;;;;;;4989117;28;20043;-86
2022/08/15 02:51:25;;;;;;;13.27;11.05;;;21.30;99.90;;;;;;4990186;28;20042;-86
2022/08/15 02:53:54;;;;;;;13.27;11.18;;;21.30;99.90;;;;;;4989613;28;20093;-87
2022/08/15 02:56:25;;;;;;;13.00;11.23;;;21.10;99.90;;;;;;4990371;28;20082;-87
2022/08/15 02:58:51;;;;;;;14.35;11.27;;;21.10;99.90;;;;;;4989438;28;20386;-87
2022/08/15 03:01:18;;;;;;;13.57;11.30;;;21.10;99.90;;;;;;4970702;28;20059;-88
2022/08/15 03:03:51;;;;;;;13.00;11.60;;;21.10;99.90;;;;;;4971392;28;20058;-88
2022/08/15 03:06:30;;;;;;;13.40;11.32;;;21.10;99.90;;;;;;4985728;28;20054;-87
2022/08/15 03:09:00;;;;;;;14.23;12.27;;;21.00;99.90;;;;;;4986708;28;20054;-87
2022/08/15 03:11:26;;;;;;;13.18;11.65;;;21.10;99.90;;;;;;4991433;28;20450;-87
2022/08/15 03:13:53;;;;;;;15.75;12.35;;;21.00;99.90;;;;;;4986884;28;20073;-87
2022/08/15 03:16:19;;;;;;;12.82;11.48;;;21.00;99.90;;;;;;4989624;28;20046;-87
2022/08/15 03:18:45;;;;;;;14.43;11.48;;;20.90;99.90;;;;;;4987844;28;20061;-87
2022/08/15 03:21:17;;;;;;;14.18;11.05;;;20.90;99.90;;;;;;4973117;28;20078;-87
2022/08/15 03:23:48;;;;;;;13.43;11.73;;;20.80;99.90;;;;;;4988713;28;20562;-87
2022/08/15 03:26:16;;;;;;;12.55;11.25;;;20.70;99.90;;;;;;4989242;28;20105;-87
2022/08/15 03:28:44;;;;;;;13.45;11.38;;;20.60;99.90;;;;;;4983982;28;20093;-88
2022/08/15 03:31:11;;;;;;;13.75;11.90;;;20.60;99.90;;;;;;4988393;28;20133;-88
2022/08/15 03:33:38;;;;;;;15.15;12.18;;;20.50;99.90;;;;;;4987111;28;20060;-87
2022/08/15 03:36:05;;;;;;;14.95;12.07;;;20.40;99.90;;;;;;4984644;28;20520;-87
2022/08/15 03:38:30;;;;;;;14.40;12.95;;;20.40;99.90;;;;;;4970119;28;20054;-87
2022/08/15 03:40:56;;;;;;;14.40;12.13;;;20.30;99.90;;;;;;4971913;28;20526;-87
2022/08/15 03:43:28;;;;;;;14.88;12.30;;;20.30;99.90;;;;;;4990155;28;20054;-85
2022/08/15 03:46:13;;;;;;;14.18;12.57;;;20.20;99.90;;;;;;4988034;28;20046;-86
2022/08/15 03:48:44;;;;;;;16.70;13.23;;;20.20;99.90;;;;;;4989352;28;20483;-87
2022/08/15 03:51:11;;;;;;;15.68;13.25;;;20.20;99.90;;;;;;4987216;28;20054;-86
2022/08/15 03:53:44;;;;;;;15.35;13.35;;;19.90;99.90;;;;;;4987438;28;20517;-87
2022/08/15 03:56:13;;;;;;;16.27;13.15;;;20.00;99.90;;;;;;4972551;28;20049;-87
2022/08/15 03:58:39;;;;;;;15.13;13.52;;;20.00;99.90;;;;;;4971547;28;20041;-87
2022/08/15 04:01:09;;;;;;;14.98;13.40;;;20.10;99.90;;;;;;4986672;28;20112;-88
2022/08/15 04:03:35;;;;;;;15.82;13.07;;;20.00;99.90;;;;;;4988425;28;20081;-87
2022/08/15 04:06:07;;;;;;;15.45;12.95;;;20.00;99.90;;;;;;4988915;28;20038;-91
2022/08/15 04:08:34;;;;;;;15.68;14.07;;;19.90;99.90;;;;;;4988023;28;20042;-91
2022/08/15 04:11:02;;;;;;;16.13;13.70;;;20.00;99.90;;;;;;4989281;28;20085;-89
2022/08/15 04:13:28;;;;;;;16.50;13.18;;;19.90;99.90;;;;;;4982468;28;20445;-88
2022/08/15 04:15:58;;;;;;;15.18;13.48;;;19.90;99.90;;;;;;4978851;28;20042;-88
2022/08/15 04:18:24;;;;;;;15.25;13.30;;;19.90;99.90;;;;;;4966767;28;20046;-90
2022/08/15 04:20:51;;;;;;;15.48;12.98;;;19.90;99.90;;;;;;4983550;28;20051;-91
2022/08/15 04:23:17;;;;;;;15.32;12.95;;;19.90;99.90;;;;;;4972180;28;20046;-91
2022/08/15 04:25:43;;;;;;;17.40;13.15;;;19.90;99.90;;;;;;4987897;28;20049;-90
2022/08/15 04:28:14;;;;;;;14.32;12.77;;;19.90;99.90;;;;;;4981606;28;20463;-92
2022/08/15 04:30:41;;;;;;;;;;;19.90;99.90;;;;;;4989047;28;20387;-94
2022/08/15 04:33:18;;;;;;;15.32;13.00;;;19.80;99.90;;;;;;4996280;28;19937;-95
2022/08/15 04:35:48;;;;;;;14.65;13.13;;;19.80;99.90;;;;;;4984922;28;20050;-94
2022/08/15 04:38:17;;;;;;;16.20;14.02;;;19.90;99.90;;;;;;4996524;28;20042;-94
2022/08/15 04:40:44;;;;;;;15.00;13.40;;;20.00;99.90;;;;;;4987476;28;20402;-92
2022/08/15 04:43:10;;;;;;;15.63;13.30;;;20.00;99.90;;;;;;4962139;28;20046;-92
2022/08/15 04:45:40;;;;;;;15.13;13.50;;;20.00;99.90;;;;;;4961212;28;20439;-90
2022/08/15 04:48:15;;;;;;;14.52;13.02;;;19.90;99.90;;;;;;4985665;28;20073;-90
2022/08/15 04:50:50;;;;;;;14.68;13.07;;;19.90;99.90;;;;;;4982305;28;20377;-95
2022/08/15 04:53:17;;;;;;;15.65;13.57;;;20.00;99.90;;;;;;4984700;28;20046;-94
2022/08/15 04:55:44;;;;;;;14.75;13.10;;;19.90;99.90;;;;;;4989425;28;20043;-94
2022/08/15 04:58:14;;;;;;;15.48;13.10;;;20.00;99.90;;;;;;4991307;28;20040;-94
2022/08/15 05:00:44;;;;;;;14.82;13.07;;;20.00;99.90;;;;;;4996255;28;20050;-95
2022/08/15 05:03:18;;;;;;;14.33;12.90;;;20.00;99.90;;;;;;4979261;28;20046;-92
2022/08/15 05:05:49;;;;;;;14.27;12.77;;;20.10;99.90;;;;;;4990043;28;20301;-93
2022/08/15 05:08:19;;;;;;;13.98;12.40;;;20.10;99.90;;;;;;4965048;28;20411;-92
2022/08/15 05:11:00;;;;;;;14.82;12.68;;;20.10;99.90;;;;;;4983878;28;20043;-94
2022/08/15 05:13:33;;;;;;;17.17;13.27;;;20.00;99.90;;;;;;4974203;28;20072;-93
2022/08/15 05:15:59;;;;;;;14.00;12.15;;;20.20;99.90;;;;;;4963820;28;20098;-92
2022/08/15 05:18:26;;;;;;;14.45;12.70;;;20.30;99.90;;;;;;4971800;28;20042;-92
2022/08/15 05:20:53;;;;;;;15.88;12.30;;;20.30;99.90;;;;;;4971852;28;20399;-92
2022/08/15 05:23:21;;;;;;;16.52;12.25;;;20.40;99.90;;;;;;4988660;28;20046;-91
2022/08/15 05:25:52;;;;;;;17.05;12.85;;;20.50;99.90;;;;;;4971718;28;20141;-92
2022/08/15 05:28:18;;;;;;;18.77;12.70;;;20.50;99.90;;;;;;4986401;28;20112;-91
2022/08/15 05:30:47;;;;;;;17.13;12.63;;;20.60;99.90;;;;;;4991895;28;20369;-93
2022/08/15 05:33:16;;;;;;;14.48;11.77;;;20.70;99.90;;;;;;4973851;28;20139;-93
2022/08/15 05:35:46;;;;;;;13.68;12.27;;;20.70;99.90;;;;;;4977840;28;20053;-92
2022/08/15 05:38:18;;;;;;;13.63;11.95;;;20.70;99.90;;;;;;4990626;28;20081;-92
2022/08/15 05:40:51;;;;;;;14.77;12.18;;;20.90;99.90;;;;;;4988318;28;20047;-93
2022/08/15 05:43:52;;;;;;;15.43;12.57;;;21.00;99.90;;;;;;4959862;28;20053;-91
2022/08/15 05:46:39;;;;;;;13.52;12.13;;;21.10;99.90;;;;;;4970750;28;20534;-90
2022/08/15 05:49:22;;;;;;;13.65;11.75;;;21.20;99.90;;;;;;5000500;28;20305;-92
2022/08/15 05:51:54;;;;;;;13.02;11.63;;;21.20;99.90;;;;;;4994077;28;20093;-92
2022/08/15 05:54:20;;;;;;;14.40;11.73;;;21.30;99.90;;;;;;4986553;28;20061;-94
2022/08/15 05:57:09;;;;;;;14.95;12.48;;;21.40;99.90;;;;;;4992802;28;20446;-92
2022/08/15 05:59:41;;;;;;;14.15;11.30;;;21.50;99.90;;;;;;4991062;28;20407;-92
2022/08/15 06:02:13;;;;;;;13.70;12.25;;;21.60;99.90;;;;;;4976210;28;20047;-94
2022/08/15 06:05:01;;;;;;;14.10;12.60;;;21.60;99.90;;;;;;4988582;28;20125;-94
2022/08/15 06:07:27;;;;;;;13.70;12.30;;;21.70;99.90;;;;;;4989673;28;20042;-92
2022/08/15 06:10:01;;;;;;;13.98;11.82;;;21.80;99.90;;;;;;4992377;28;20050;-91
2022/08/15 06:12:32;;;;;;;13.52;12.13;;;21.80;99.90;;;;;;4991711;28;20046;-93
2022/08/15 06:15:27;;;;;;;12.77;11.48;;;21.80;99.90;;;;;;4989493;28;20097;-92
2022/08/15 06:17:56;;;;;;;15.70;12.20;;;21.90;99.90;;;;;;4989305;28;20547;-93
2022/08/15 06:20:50;;;;;;;14.15;11.88;;;21.80;99.90;;;;;;4984002;28;20047;-93
2022/08/15 06:23:39;;;;;;;13.80;12.30;;;21.90;99.90;;;;;;4950606;28;20089;-92
2022/08/15 06:26:23;;;;;;;14.88;12.85;;;21.90;99.90;;;;;;4968569;28;20555;-91
2022/08/15 06:29:12;;;;;;;16.60;12.57;;;21.90;99.90;;;;;;4969662;28;20090;-92
2022/08/15 06:31:57;;;;;;;13.43;11.63;;;22.00;99.90;;;;;;4955461;28;20138;-93
2022/08/15 06:34:47;;;;;;;15.45;12.40;;;22.00;99.90;;;;;;4956009;28;20113;-94
2022/08/15 06:37:24;;;;;;;14.05;12.55;;;22.00;99.90;;;;;;4922732;28;20193;-93
2022/08/15 06:40:06;;;;;;;13.63;12.13;;;22.10;99.90;;;;;;4967286;28;20043;-91
2022/08/15 06:42:35;;;;;;;15.55;12.02;;;22.10;99.90;;;;;;4953981;28;20038;-91
2022/08/15 06:45:07;;;;;;;13.65;12.25;;;22.20;99.90;;;;;;4967272;28;20078;-92
2022/08/15 06:47:33;;;;;;;13.75;11.88;;;22.20;99.90;;;;;;4953800;28;20054;-93
2022/08/15 06:50:06;;;;;;;13.13;11.65;;;22.30;99.90;;;;;;4969851;28;20038;-94
2022/08/15 06:52:32;;;;;;;13.13;11.73;;;22.40;99.90;;;;;;4928657;28;20042;-92
2022/08/15 06:54:59;;;;;;;13.82;12.43;;;22.40;99.90;;;;;;4926070;28;20065;-92
2022/08/15 06:57:38;;;;;;;13.23;11.82;;;22.50;99.90;;;;;;4966306;28;20050;-93
2022/08/15 07:00:19;;;;;;;15.18;11.75;;;22.70;99.90;;;;;;4973191;28;20132;-92
2022/08/15 07:03:10;;;;;;;15.25;12.55;;;22.70;99.90;;;;;;4993043;28;20448;-93
2022/08/15 07:05:48;;;;;;;14.70;12.10;;;22.80;99.90;;;;;;4992225;28;20046;-92
2022/08/15 07:08:18;;;;;;;12.85;11.40;;;23.00;99.90;;;;;;4976888;28;20051;-93
2022/08/15 07:10:52;;;;;;;12.57;11.27;;;23.10;99.90;;;;;;4988649;28;20045;-94
2022/08/15 07:13:22;;;;;;;16.00;13.52;;;23.20;99.90;;;;;;4969235;28;20043;-95
2022/08/15 07:16:06;;;;;;;14.55;12.65;;;23.30;99.90;;;;;;4985783;28;20483;-93
2022/08/15 07:18:37;;;;;;;14.55;12.23;;;23.40;99.90;;;;;;4967935;28;20061;-93
2022/08/15 07:21:05;;;;;;;16.15;12.48;;;23.40;99.90;;;;;;4992196;28;20053;-94
2022/08/15 07:23:32;;;;;;;12.80;11.45;;;23.50;99.90;;;;;;4983293;28;20050;-93
2022/08/15 07:26:07;;;;;;;13.40;12.00;;;23.50;99.90;;;;;;4986797;28;20052;-93
2022/08/15 07:28:35;;;;;;;12.43;10.80;;;23.60;99.90;;;;;;4991665;28;20038;-92
2022/08/15 07:31:11;;;;;;;15.70;14.05;;;23.60;99.90;;;;;;4983694;28;20326;-93
2022/08/15 07:33:47;;;;;;;16.13;14.13;;;23.70;99.90;;;;;;4977229;28;20060;-89
2022/08/15 07:36:12;;;;;;;16.05;13.82;;;23.80;99.90;;;;;;4986820;28;20046;-91
2022/08/15 07:38:38;;;;;;;15.75;14.07;;;23.80;99.90;;;;;;4989321;28;20042;-93
2022/08/15 07:41:28;;;;;;;14.57;12.85;;;23.90;99.90;;;;;;4987236;28;20435;-92
2022/08/15 07:44:18;;;;;;;14.85;12.90;;;23.90;99.90;;;;;;4985694;28;20042;-92
2022/08/15 07:47:01;;;;;;;15.68;13.98;;;24.10;99.90;;;;;;4979522;28;20089;-92
2022/08/15 07:49:32;;;;;;;13.68;12.25;;;24.10;99.90;;;;;;4983226;28;20061;-92
2022/08/15 07:52:05;;;;;;;12.68;11.32;;;24.00;99.90;;;;;;4978381;28;20476;-91
2022/08/15 07:54:51;;;;;;;12.68;11.38;;;24.20;99.90;;;;;;4984221;28;20065;-91
2022/08/15 07:57:22;;;;;;;14.70;11.25;;;24.20;99.90;;;;;;4963602;28;20104;-90
2022/08/15 08:00:11;;;;;;;15.82;13.05;;;24.30;99.90;;;;;;4961995;28;20054;-87
2022/08/15 08:02:48;;;;;;;16.77;13.57;;;24.40;99.90;;;;;;4989443;28;20108;-90
2022/08/15 08:05:14;;;;;;;13.15;11.75;;;24.50;99.90;;;;;;4989743;28;20043;-91
2022/08/15 08:07:43;;;;;;;13.20;11.90;;;24.60;99.90;;;;;;4989518;28;20049;-91
2022/08/15 08:10:29;;;;;;;15.55;12.23;;;24.60;99.90;;;;;;4972463;28;20050;-91
2022/08/15 08:13:35;;;;;;;13.73;11.80;;;24.70;99.90;;;;;;4971321;28;20046;-91
2022/08/15 08:16:13;;;;;;;15.93;12.60;;;24.70;99.90;;;;;;4975930;28;20601;-91
2022/08/15 08:18:47;;;;;;;12.85;11.40;;;24.70;99.90;;;;;;4988992;28;20054;-90
2022/08/15 08:21:17;;;;;;;13.20;11.50;;;24.70;99.90;;;;;;4969635;28;20141;-88
2022/08/15 08:23:47;;;;;;;13.75;12.25;;;24.80;99.90;;;;;;4988025;28;20395;-88
2022/08/15 08:26:50;;;;;;;15.32;13.05;;;24.80;99.90;;;;;;4989816;28;20073;-88
2022/08/15 08:29:36;;;;;;;13.10;11.77;;;24.90;99.90;;;;;;4987666;28;20161;-87
2022/08/15 08:32:10;;;;;;;14.15;11.80;;;25.00;99.90;;;;;;4986429;28;20500;-87
2022/08/15 08:34:40;;;;;;;14.38;12.88;;;25.10;99.90;;;;;;4989391;28;20054;-88
2022/08/15 08:37:19;;;;;;;14.63;12.57;;;25.30;99.90;;;;;;4988985;28;20042;-88
2022/08/15 08:43:05;;;;;;;14.43;12.10;;;25.50;99.90;;;;;;4970020;28;20051;-86
2022/08/15 08:45:49;;;;;;;14.85;13.35;;;25.60;99.90;;;;;;4976318;28;20047;-86
2022/08/15 08:48:31;;;;;;;16.25;13.07;;;25.70;99.90;;;;;;4988862;28;20049;-85
2022/08/15 08:51:02;;;;;;;15.82;12.75;;;25.70;99.90;;;;;;4968383;28;20052;-86
2022/08/15 08:53:38;;;;;;;15.18;13.57;;;25.70;99.90;;;;;;4971649;28;20423;-87
2022/08/15 08:56:14;;;;;;;13.52;12.07;;;25.60;99.90;;;;;;4989180;28;20061;-88
2022/08/15 08:58:49;;;;;;;14.15;11.48;;;25.60;99.90;;;;;;4971565;28;20095;-87
2022/08/15 09:01:19;;;;;;;14.95;12.35;;;25.50;99.90;;;;;;4989207;28;20058;-90
2022/08/15 09:03:51;;;;;;;14.73;12.32;;;25.60;99.90;;;;;;4987592;28;20039;-91
2022/08/15 09:06:23;;;;;;;14.20;12.65;;;25.60;99.90;;;;;;4987874;28;20054;-87
2022/08/15 09:08:54;;;;;;;14.23;12.75;;;25.60;99.90;;;;;;4987707;28;20042;-88
2022/08/15 09:11:27;;;;;;;14.00;11.70;;;25.70;99.90;;;;;;4988160;28;20645;-88
2022/08/15 09:13:57;;;;;;;14.02;12.63;;;25.80;99.90;;;;;;4985820;28;20065;-87
2022/08/15 09:16:30;;;;;;;14.15;12.65;;;25.90;99.90;;;;;;4986116;28;20046;-87
2022/08/15 09:19:01;;;;;;;13.90;12.27;;;26.10;99.90;;;;;;4988362;28;20046;-88
2022/08/15 09:21:27;;;;;;;15.45;13.85;;;26.10;99.90;;;;;;4988425;28;20046;-88
2022/08/15 09:23:54;;;;;;;15.27;13.70;;;26.20;99.90;;;;;;4988241;28;20125;-87
2022/08/15 09:26:53;;;;;;;14.30;12.75;;;26.20;99.90;;;;;;4989704;28;20046;-89
2022/08/15 09:29:37;;;;;;;19.52;14.93;;;26.20;99.90;;;;;;4988745;28;20050;-88
2022/08/15 09:32:27;;;;;;;15.57;13.98;;;26.10;99.90;;;;;;4989719;28;20057;-88
2022/08/15 09:35:11;;;;;;;17.00;14.07;;;26.10;99.90;;;;;;4992276;28;20053;-88
2022/08/15 09:37:40;;;;;;;16.08;14.25;;;26.00;99.90;;;;;;4992321;28;20403;-88
2022/08/15 09:40:17;;;;;;;16.98;14.95;;;26.00;99.90;;;;;;4975231;28;20454;-88
2022/08/15 09:43:09;;;;;;;17.95;16.00;;;26.00;99.90;;;;;;4990733;28;20053;-87
2022/08/15 09:46:07;;;;;;;17.60;15.70;;;26.00;99.90;;;;;;4991985;28;20133;-88
2022/08/15 09:48:38;;;;;;;17.73;15.65;;;26.00;99.90;;;;;;4987924;28;20094;-89
2022/08/15 09:51:19;;;;;;;18.30;16.48;;;25.90;99.90;;;;;;4974935;28;20054;-88
2022/08/15 09:54:08;;;;;;;19.13;17.23;;;25.90;99.90;;;;;;4975790;28;20444;-88
2022/08/15 09:56:37;;;;;;;18.42;16.00;;;25.90;99.90;;;;;;4990983;28;20050;-89
2022/08/15 09:59:09;;;;;;;17.70;15.82;;;25.80;99.90;;;;;;4989641;28;20046;-92
2022/08/15 10:01:44;;;;;;;18.88;16.33;;;25.90;99.90;;;;;;4991837;28;20104;-91
2022/08/15 10:04:17;;;;;;;17.92;16.13;;;25.90;99.90;;;;;;4992661;28;20132;-90
2022/08/15 10:07:01;;;;;;;19.60;17.60;;;25.90;99.90;;;;;;4993122;28;20042;-91
2022/08/15 10:09:32;;;;;;;19.35;17.45;;;25.90;99.90;;;;;;4987719;28;20122;-92
2022/08/15 10:12:00;;;;;;;20.65;18.52;;;26.00;99.90;;;;;;4990854;28;20406;-92
2022/08/15 10:14:39;;;;;;;20.35;18.13;;;26.00;99.90;;;;;;4991567;28;20046;-92
2022/08/15 10:17:37;;;;;;;20.08;18.08;;;26.00;99.90;;;;;;4972506;28;20118;-90
2022/08/15 10:20:14;;;;;;;20.55;18.35;;;26.00;99.90;;;;;;4975461;28;20408;-91
2022/08/15 10:22:49;;;;;;;20.20;18.10;;;26.00;99.90;;;;;;4987579;28;20064;-91
2022/08/15 10:25:30;;;;;;;19.58;17.67;;;26.00;99.90;;;;;;4991016;28;20042;-90
2022/08/15 10:27:58;;;;;;;;;;;26.00;99.90;;;;;;4990041;28;20042;-92
2022/08/15 10:30:30;;;;;;;21.83;17.88;;;25.90;99.90;;;;;;4991142;28;19926;-90
2022/08/15 10:32:57;;;;;;;19.85;17.88;;;25.80;99.90;;;;;;4973223;28;20046;-91
2022/08/15 10:35:41;;;;;;;20.02;18.02;;;25.80;99.90;;;;;;4988905;28;20522;-92
2022/08/15 10:38:09;;;;;;;19.13;17.23;;;25.70;99.90;;;;;;4989677;28;20046;-92
2022/08/15 10:41:00;;;;;;;16.73;15.02;;;25.70;99.90;;;;;;4991808;28;20050;-91
2022/08/15 10:43:32;;;;;;;21.15;18.95;;;25.60;99.90;;;;;;4989095;28;20133;-91
2022/08/15 10:46:12;;;;;;;18.58;16.42;;;25.60;99.90;;;;;;4989275;28;20552;-91
2022/08/15 10:48:49;;;;;;;;;;;25.60;99.90;;;;;;4990372;28;20038;-91
2022/08/15 10:51:53;;;;;;;20.90;18.67;;;25.50;99.90;;;;;;4991785;28;19922;-93
2022/08/15 10:54:56;;;;;;;20.85;18.85;;;25.50;99.90;;;;;;4973990;28;20047;-93
2022/08/15 10:57:24;;;;;;;22.27;20.08;;;25.50;99.90;;;;;;4972238;28;20046;-90
2022/08/15 10:59:54;;;;;;;24.35;21.85;;;25.60;99.90;;;;;;4978725;28;20121;-91
2022/08/15 11:02:41;;;;;;;23.13;20.73;;;25.60;99.90;;;;;;4990719;28;20143;-92
2022/08/15 11:05:12;;;;;;;23.90;21.45;;;25.60;99.90;;;;;;4989231;28;20324;-91
2022/08/15 11:07:40;;;;;;;;;;;25.70;99.90;;;;;;4973647;28;20186;-93
2022/08/15 11:10:17;;;;;;;24.42;21.92;;;25.70;99.90;;;;;;4974392;28;19926;-92
2022/08/15 11:12:50;;;;;;;24.95;22.40;;;25.90;99.90;;;;;;4990547;28;20057;-90
2022/08/15 11:15:22;;;;;;;24.55;22.08;;;25.90;99.90;;;;;;4990431;28;20088;-92
2022/08/15 11:17:53;;;;;;;22.55;20.27;;;26.00;99.90;;;;;;4991712;28;20050;-93
2022/08/15 11:20:24;;;;;;;23.23;20.83;;;26.10;99.90;;;;;;4990700;28;20042;-91
2022/08/15 11:22:55;;;;;;;22.42;20.15;;;26.10;99.90;;;;;;4990288;28;20402;-92
2022/08/15 11:25:26;;;;;;;22.50;20.10;;;26.10;99.90;;;;;;4990533;28;20070;-90
2022/08/15 11:28:10;;;;;;;23.50;21.02;;;26.20;99.90;;;;;;4987697;28;20396;-92
2022/08/15 11:30:38;;;;;;;23.88;21.38;;;26.20;99.90;;;;;;4987264;28;20042;-92
2022/08/15 11:33:41;;;;;;;24.50;22.10;;;26.20;99.90;;;;;;4986210;28;20534;-92
2022/08/15 11:36:10;;;;;;;25.02;22.42;;;26.30;99.90;;;;;;4988641;28;20054;-93
2022/08/15 11:38:42;;;;;;;24.13;20.88;;;26.30;99.90;;;;;;4988685;28;20053;-92
2022/08/15 11:41:08;;;;;;;22.83;20.52;;;26.40;99.90;;;;;;4987697;28;20039;-91
2022/08/15 11:43:34;;;;;;;22.95;20.55;;;26.50;99.90;;;;;;4989922;28;20046;-92
2022/08/15 11:46:00;;;;;;;25.17;22.77;;;26.50;99.90;;;;;;4989153;28;20038;-92
2022/08/15 11:48:28;;;;;;;21.38;19.17;;;26.70;99.90;;;;;;4991246;28;20104;-93
2022/08/15 11:50:59;;;;;;;22.95;20.73;;;26.70;99.90;;;;;;4991468;28;20396;-93
2022/08/15 11:53:29;;;;;;;21.42;19.23;;;26.90;99.90;;;;;;4993108;28;20038;-94
2022/08/15 11:55:54;;;;;;;;;;;27.10;99.90;;;;;;4997644;28;20065;-92
2022/08/15 11:58:29;;;;;;;20.80;18.63;;;27.20;99.90;;;;;;5003726;28;19937;-93
2022/08/15 12:00:57;;;;;;;22.52;19.38;;;27.20;99.90;;;;;;4990079;28;20051;-93
2022/08/15 12:03:32;;;;;;;20.23;18.17;;;27.40;99.90;;;;;;4990594;28;20054;-92
2022/08/15 12:06:13;;;;;;;15.15;13.40;;;27.60;99.90;;;;;;4971007;28;20042;-91
2022/08/15 12:08:41;;;;;;;12.90;11.50;;;27.60;99.90;;;;;;4954838;28;20439;-91
2022/08/15 12:11:24;;;;;;;12.45;10.73;;;27.60;99.90;;;;;;4979048;28;20038;-88
2022/08/15 12:13:56;;;;;;;19.77;17.65;;;27.70;99.90;;;;;;4990281;28;20050;-94
2022/08/15 12:16:38;;;;;;;18.60;16.60;;;27.80;99.90;;;;;;4988705;28;20100;-92
2022/08/15 12:19:28;;;;;;;20.73;18.63;;;27.80;99.90;;;;;;4989263;28;20058;-93
2022/08/15 12:21:57;;;;;;;20.00;18.00;;;27.80;99.90;;;;;;4989693;28;20129;-90
2022/08/15 12:24:31;;;;;;;21.15;18.92;;;27.80;99.90;;;;;;4985219;28;20232;-89
2022/08/15 12:27:01;;;;;;;17.92;16.13;;;27.90;99.90;;;;;;4972793;28;20577;-91
2022/08/15 12:29:28;;;;;;;14.80;13.30;;;27.80;99.90;;;;;;4990101;28;20333;-91
2022/08/15 12:31:54;;;;;;;15.77;14.18;;;27.90;99.90;;;;;;4982579;28;20038;-92
2022/08/15 12:34:27;;;;;;;14.68;12.32;;;27.90;99.90;;;;;;4986421;28;20078;-91
2022/08/15 12:36:53;;;;;;;15.73;13.68;;;27.80;99.90;;;;;;4986394;28;20472;-91
2022/08/15 12:39:20;;;;;;;13.70;12.30;;;27.90;99.90;;;;;;4989636;28;20046;-91
2022/08/15 12:41:49;;;;;;;17.45;15.68;;;27.90;99.90;;;;;;4977440;28;20377;-92
2022/08/15 12:44:27;;;;;;;19.08;17.17;;;27.80;99.90;;;;;;4969742;28;20050;-91
2022/08/15 12:46:55;;;;;;;19.38;17.50;;;27.70;99.90;;;;;;4970905;28;20043;-92
2022/08/15 12:49:21;;;;;;;18.90;17.00;;;27.80;99.90;;;;;;4986268;28;20400;-91
2022/08/15 12:51:49;;;;;;;18.23;15.93;;;27.70;99.90;;;;;;4989315;28;20061;-91
2022/08/15 12:54:15;;;;;;;17.15;15.38;;;27.70;99.90;;;;;;4989750;28;20483;-92
2022/08/15 12:56:43;;;;;;;17.55;15.15;;;27.60;99.90;;;;;;4990086;28;20049;-93
2022/08/15 12:59:08;;;;;;;18.58;16.67;;;27.60;99.90;;;;;;4990494;28;20185;-91
2022/08/15 13:01:36;;;;;;;17.30;15.52;;;27.50;99.90;;;;;;4989159;28;20133;-89
2022/08/15 13:04:05;;;;;;;13.80;12.35;;;27.40;99.90;;;;;;4988563;28;20467;-90